createdAt,value
2023-05-12T00:00:07.698Z,22.67
2023-05-12T00:01:07.769Z,22.67
2023-05-12T00:02:07.815Z,22.67
2023-05-12T00:03:07.942Z,22.67
2023-05-12T00:04:08.113Z,22.67
2023-05-12T00:05:07.958Z,22.67
2023-05-12T00:06:08.025Z,22.67
2023-05-12T00:07:08.090Z,22.67
2023-05-12T00:08:08.158Z,22.67
2023-05-12T00:09:08.184Z,22.67
2023-05-12T00:10:08.275Z,22.67
2023-05-12T00:11:08.330Z,22.66
2023-05-12T00:12:08.398Z,22.66
2023-05-12T00:13:08.445Z,22.66
2023-05-12T00:14:08.489Z,22.67
2023-05-12T00:15:08.545Z,22.66
2023-05-12T00:16:08.660Z,22.66
2023-05-12T00:17:08.661Z,22.66
2023-05-12T00:18:08.715Z,22.67
2023-05-12T00:19:08.882Z,22.66
2023-05-12T00:20:08.839Z,22.66
2023-05-12T00:21:08.916Z,22.67
2023-05-12T00:22:08.968Z,22.66
2023-05-12T00:23:09.022Z,22.66
2023-05-12T00:24:09.071Z,22.66
2023-05-12T00:25:09.142Z,22.65
2023-05-12T00:26:09.195Z,22.66
2023-05-12T00:27:09.266Z,22.65
2023-05-12T00:28:09.321Z,22.65
2023-05-12T00:29:09.392Z,22.65
2023-05-12T00:30:09.435Z,22.65
2023-05-12T00:31:09.529Z,22.65
2023-05-12T00:32:09.598Z,22.65
2023-05-12T00:33:09.622Z,22.65
2023-05-12T00:34:09.693Z,22.65
2023-05-12T00:35:09.738Z,22.64
2023-05-12T00:36:09.781Z,22.64
2023-05-12T00:37:09.854Z,22.63
2023-05-12T00:38:09.918Z,22.64
2023-05-12T00:39:09.964Z,22.64
2023-05-12T00:40:10.001Z,22.64
2023-05-12T00:41:10.124Z,22.63
2023-05-12T00:42:10.129Z,22.63
2023-05-12T00:43:10.194Z,22.63
2023-05-12T00:44:10.258Z,22.63
2023-05-12T00:45:10.337Z,22.63
2023-05-12T00:46:10.406Z,22.63
2023-05-12T00:47:10.440Z,22.63
2023-05-12T00:48:10.502Z,22.62
2023-05-12T00:49:10.573Z,22.62
2023-05-12T00:50:10.614Z,22.61
2023-05-12T00:51:10.691Z,22.61
2023-05-12T00:52:10.770Z,22.61
2023-05-12T00:53:10.785Z,22.61
2023-05-12T00:54:10.860Z,22.62
2023-05-12T00:55:10.936Z,22.62
2023-05-12T00:56:10.984Z,22.63
2023-05-12T00:57:11.061Z,22.62
2023-05-12T00:58:11.132Z,22.61
2023-05-12T00:59:11.176Z,22.61
2023-05-12T01:00:11.241Z,22.61
2023-05-12T01:01:11.339Z,22.61
2023-05-12T01:02:11.439Z,22.61
2023-05-12T01:03:11.515Z,22.61
2023-05-12T01:04:11.531Z,22.62
2023-05-12T01:05:11.549Z,22.62
2023-05-12T01:06:11.630Z,22.61
2023-05-12T01:07:11.659Z,22.62
2023-05-12T01:08:11.729Z,22.61
2023-05-12T01:09:11.804Z,22.61
2023-05-12T01:10:11.841Z,22.60
2023-05-12T01:11:11.918Z,22.60
2023-05-12T01:12:11.976Z,22.60
2023-05-12T01:13:12.024Z,22.60
2023-05-12T01:14:12.097Z,22.61
2023-05-12T01:15:12.145Z,22.60
2023-05-12T01:16:12.208Z,22.60
2023-05-12T01:17:12.337Z,22.60
2023-05-12T01:18:12.315Z,22.60
2023-05-12T01:19:12.444Z,22.60
2023-05-12T01:20:12.452Z,22.60
2023-05-12T01:21:12.501Z,22.60
2023-05-12T01:22:12.576Z,22.60
2023-05-12T01:23:12.637Z,22.60
2023-05-12T01:24:12.692Z,22.60
2023-05-12T01:25:12.742Z,22.60
2023-05-12T01:26:12.817Z,22.60
2023-05-12T01:27:12.893Z,22.59
2023-05-12T01:28:12.944Z,22.58
2023-05-12T01:29:13.007Z,22.58
2023-05-12T01:30:13.055Z,22.58
2023-05-12T01:31:13.142Z,22.58
2023-05-12T01:32:13.191Z,22.58
2023-05-12T01:33:13.251Z,22.59
2023-05-12T01:34:13.308Z,22.58
2023-05-12T01:35:13.355Z,22.58
2023-05-12T01:36:13.420Z,22.58
2023-05-12T01:37:13.479Z,22.57
2023-05-12T01:38:13.549Z,22.58
2023-05-12T01:39:13.597Z,22.58
2023-05-12T01:40:13.690Z,22.58
2023-05-12T01:41:13.744Z,22.58
2023-05-12T01:42:13.772Z,22.58
2023-05-12T01:43:13.853Z,22.58
2023-05-12T01:44:13.910Z,22.58
2023-05-12T01:45:13.967Z,22.58
2023-05-12T01:46:14.059Z,22.58
2023-05-12T01:47:14.076Z,22.58
2023-05-12T01:48:14.134Z,22.57
2023-05-12T01:49:14.195Z,22.58
2023-05-12T01:50:14.267Z,22.58
2023-05-12T01:51:14.338Z,22.58
2023-05-12T01:52:14.382Z,22.58
2023-05-12T01:53:14.428Z,22.58
2023-05-12T01:54:14.481Z,22.57
2023-05-12T01:55:14.546Z,22.58
2023-05-12T01:56:14.638Z,22.58
2023-05-12T01:57:14.713Z,22.56
2023-05-12T01:58:14.753Z,22.57
2023-05-12T01:59:14.843Z,22.57
2023-05-12T02:00:14.862Z,22.57
2023-05-12T02:01:14.948Z,22.56
2023-05-12T02:02:15.067Z,22.57
2023-05-12T02:03:15.122Z,22.56
2023-05-12T02:04:15.173Z,22.57
2023-05-12T02:05:15.164Z,22.57
2023-05-12T02:06:15.244Z,22.57
2023-05-12T02:07:15.310Z,22.56
2023-05-12T02:08:15.383Z,22.57
2023-05-12T02:09:15.408Z,22.57
2023-05-12T02:10:15.513Z,22.57
2023-05-12T02:11:15.540Z,22.56
2023-05-12T02:12:15.614Z,22.56
2023-05-12T02:13:15.662Z,22.57
2023-05-12T02:14:15.738Z,22.57
2023-05-12T02:15:15.783Z,22.56
2023-05-12T02:16:15.923Z,22.56
2023-05-12T02:17:15.909Z,22.56
2023-05-12T02:18:15.967Z,22.56
2023-05-12T02:19:16.053Z,22.56
2023-05-12T02:20:16.097Z,22.56
2023-05-12T02:21:16.140Z,22.55
2023-05-12T02:22:16.196Z,22.55
2023-05-12T02:23:16.260Z,22.54
2023-05-12T02:24:16.314Z,22.55
2023-05-12T02:25:16.388Z,22.55
2023-05-12T02:26:16.452Z,22.55
2023-05-12T02:27:16.510Z,22.55
2023-05-12T02:28:16.557Z,22.55
2023-05-12T02:29:16.638Z,22.55
2023-05-12T02:30:16.710Z,22.55
2023-05-12T02:31:16.755Z,22.55
2023-05-12T02:32:16.820Z,22.55
2023-05-12T02:33:16.897Z,22.55
2023-05-12T02:34:16.930Z,22.54
2023-05-12T02:35:17.009Z,22.55
2023-05-12T02:36:17.065Z,22.54
2023-05-12T02:37:17.124Z,22.54
2023-05-12T02:38:17.194Z,22.54
2023-05-12T02:39:17.232Z,22.54
2023-05-12T02:40:17.347Z,22.54
2023-05-12T02:41:17.385Z,22.54
2023-05-12T02:42:17.396Z,22.54
2023-05-12T02:43:17.463Z,22.54
2023-05-12T02:44:17.508Z,22.54
2023-05-12T02:45:17.579Z,22.54
2023-05-12T02:46:17.716Z,22.53
2023-05-12T02:47:17.706Z,22.53
2023-05-12T02:48:17.758Z,22.54
2023-05-12T02:49:17.855Z,22.54
2023-05-12T02:50:17.924Z,22.54
2023-05-12T02:51:17.949Z,22.53
2023-05-12T02:52:18.002Z,22.54
2023-05-12T02:53:18.067Z,22.54
2023-05-12T02:54:18.135Z,22.54
2023-05-12T02:55:18.184Z,22.54
2023-05-12T02:56:18.256Z,22.54
2023-05-12T02:57:18.325Z,22.53
2023-05-12T02:58:18.373Z,22.54
2023-05-12T02:59:18.426Z,22.54
2023-05-12T03:00:18.624Z,22.53
2023-05-12T03:01:18.583Z,22.53
2023-05-12T03:02:18.699Z,22.53
2023-05-12T03:03:18.752Z,22.52
2023-05-12T03:04:18.738Z,22.53
2023-05-12T03:05:18.786Z,22.53
2023-05-12T03:06:18.851Z,22.52
2023-05-12T03:07:18.961Z,22.52
2023-05-12T03:08:18.972Z,22.52
2023-05-12T03:09:19.003Z,22.52
2023-05-12T03:10:19.504Z,22.52
2023-05-12T03:11:19.130Z,22.52
2023-05-12T03:12:19.191Z,22.51
2023-05-12T03:13:19.270Z,22.52
2023-05-12T03:14:19.308Z,22.52
2023-05-12T03:15:19.391Z,22.52
2023-05-12T03:16:19.808Z,22.52
2023-05-12T03:17:19.541Z,22.52
2023-05-12T03:18:19.636Z,22.52
2023-05-12T03:19:19.624Z,22.52
2023-05-12T03:20:20.059Z,22.52
2023-05-12T03:21:19.751Z,22.52
2023-05-12T03:22:19.833Z,22.52
2023-05-12T03:23:19.868Z,22.51
2023-05-12T03:24:19.928Z,22.51
2023-05-12T03:25:20.006Z,22.52
2023-05-12T03:26:20.053Z,22.51
2023-05-12T03:27:20.125Z,22.52
2023-05-12T03:28:20.167Z,22.51
2023-05-12T03:29:20.223Z,22.51
2023-05-12T03:30:20.426Z,22.51
2023-05-12T03:31:20.364Z,22.52
2023-05-12T03:32:20.431Z,22.52
2023-05-12T03:33:20.453Z,22.52
2023-05-12T03:34:20.542Z,22.51
2023-05-12T03:35:20.607Z,22.51
2023-05-12T03:36:20.646Z,22.51
2023-05-12T03:37:20.710Z,22.51
2023-05-12T03:38:20.774Z,22.51
2023-05-12T03:39:20.844Z,22.50
2023-05-12T03:40:21.185Z,22.51
2023-05-12T03:41:20.959Z,22.51
2023-05-12T03:42:21.025Z,22.51
2023-05-12T03:43:21.082Z,22.51
2023-05-12T03:44:21.157Z,22.51
2023-05-12T03:45:21.195Z,22.50
2023-05-12T03:46:21.323Z,22.50
2023-05-12T03:47:21.408Z,22.50
2023-05-12T03:48:21.406Z,22.49
2023-05-12T03:49:21.438Z,22.50
2023-05-12T03:50:21.652Z,22.50
2023-05-12T03:51:21.555Z,22.50
2023-05-12T03:52:21.627Z,22.50
2023-05-12T03:53:21.661Z,22.50
2023-05-12T03:54:21.736Z,22.50
2023-05-12T03:55:21.760Z,22.50
2023-05-12T03:56:21.816Z,22.50
2023-05-12T03:57:21.887Z,22.49
2023-05-12T03:58:21.904Z,22.50
2023-05-12T03:59:21.960Z,22.50
2023-05-12T04:00:22.279Z,22.49
2023-05-12T04:01:22.061Z,22.49
2023-05-12T04:02:22.201Z,22.49
2023-05-12T04:03:22.249Z,22.50
2023-05-12T04:04:22.232Z,22.50
2023-05-12T04:05:22.301Z,22.49
2023-05-12T04:06:22.344Z,22.49
2023-05-12T04:07:22.438Z,22.49
2023-05-12T04:08:22.464Z,22.49
2023-05-12T04:09:22.528Z,22.50
2023-05-12T04:10:22.565Z,22.49
2023-05-12T04:11:22.632Z,22.49
2023-05-12T04:12:22.678Z,22.49
2023-05-12T04:13:22.686Z,22.50
2023-05-12T04:14:29.194Z,22.49
2023-05-12T04:15:23.707Z,22.49
2023-05-12T04:16:22.771Z,22.50
2023-05-12T04:17:22.755Z,22.49
2023-05-12T04:18:22.718Z,22.50
2023-05-12T04:19:22.714Z,22.49
2023-05-12T04:20:22.778Z,22.50
2023-05-12T04:21:22.704Z,22.51
2023-05-12T04:22:24.826Z,22.50
2023-05-12T04:23:22.682Z,22.49
2023-05-12T04:24:22.645Z,22.50
2023-05-12T04:25:22.636Z,22.50
2023-05-12T04:26:22.631Z,22.50
2023-05-12T04:27:22.634Z,22.50
2023-05-12T04:28:22.647Z,22.50
2023-05-12T04:29:22.645Z,22.50
2023-05-12T04:30:22.685Z,22.50
2023-05-12T04:31:22.657Z,22.50
2023-05-12T04:32:22.642Z,22.50
2023-05-12T04:33:22.598Z,22.50
2023-05-12T04:34:22.585Z,22.50
2023-05-12T04:35:22.576Z,22.50
2023-05-12T04:36:22.589Z,22.51
2023-05-12T04:37:22.578Z,22.50
2023-05-12T04:38:22.575Z,22.50
2023-05-12T04:39:22.578Z,22.50
2023-05-12T04:40:22.847Z,22.50
2023-05-12T04:41:22.559Z,22.50
2023-05-12T04:42:22.570Z,22.50
2023-05-12T04:44:22.515Z,22.49
2023-05-12T04:45:22.768Z,22.50
2023-05-12T04:46:22.572Z,22.50
2023-05-12T04:47:22.532Z,22.51
2023-05-12T04:48:22.485Z,22.50
2023-05-12T04:49:22.497Z,22.50
2023-05-12T04:50:22.483Z,22.50
2023-05-12T04:51:22.477Z,22.51
2023-05-12T04:52:23.974Z,22.51
2023-05-12T04:53:22.467Z,22.51
2023-05-12T04:54:22.468Z,22.53
2023-05-12T04:55:22.526Z,22.55
2023-05-12T04:56:22.513Z,22.56
2023-05-12T04:57:22.575Z,22.56
2023-05-12T04:58:22.650Z,22.57
2023-05-12T04:59:22.719Z,22.56
2023-05-12T05:00:22.767Z,22.58
2023-05-12T05:01:22.857Z,22.59
2023-05-12T05:02:22.977Z,22.60
2023-05-12T05:03:23.028Z,22.60
2023-05-12T05:04:23.030Z,22.61
2023-05-12T05:05:23.217Z,22.61
2023-05-12T05:06:23.119Z,22.61
2023-05-12T05:07:23.200Z,22.62
2023-05-12T05:08:23.244Z,22.62
2023-05-12T05:09:23.296Z,22.62
2023-05-12T05:10:23.357Z,22.63
2023-05-12T05:11:23.409Z,22.63
2023-05-12T05:12:23.470Z,22.62
2023-05-12T05:13:23.518Z,22.62
2023-05-12T05:14:23.589Z,22.63
2023-05-12T05:15:23.659Z,22.63
2023-05-12T05:16:23.772Z,22.64
2023-05-12T05:17:23.792Z,22.63
2023-05-12T05:18:24.538Z,22.64
2023-05-12T05:19:35.355Z,22.64
2023-05-12T05:21:23.857Z,22.64
2023-05-12T05:22:23.874Z,22.64
2023-05-12T05:23:23.841Z,22.65
2023-05-12T05:24:23.822Z,22.65
2023-05-12T05:25:23.809Z,22.65
2023-05-12T05:26:23.830Z,22.66
2023-05-12T05:27:24.306Z,22.67
2023-05-12T05:28:23.869Z,22.68
2023-05-12T05:29:23.925Z,22.68
2023-05-12T05:30:23.965Z,22.70
2023-05-12T05:31:24.053Z,22.73
2023-05-12T05:32:24.099Z,22.76
2023-05-12T05:33:24.120Z,22.79
2023-05-12T05:34:24.167Z,22.80
2023-05-12T05:35:24.230Z,22.81
2023-05-12T05:36:24.337Z,22.85
2023-05-12T05:37:24.323Z,22.89
2023-05-12T05:38:24.372Z,22.93
2023-05-12T05:39:24.382Z,22.97
2023-05-12T05:40:24.424Z,23.00
2023-05-12T05:41:24.485Z,23.05
2023-05-12T05:42:24.816Z,23.09
2023-05-12T05:43:24.553Z,23.13
2023-05-12T05:44:24.583Z,23.18
2023-05-12T05:45:25.526Z,23.21
2023-05-12T05:46:24.607Z,23.25
2023-05-12T05:47:24.850Z,23.28
2023-05-12T05:48:24.632Z,23.31
2023-05-12T05:49:24.627Z,23.34
2023-05-12T05:50:24.652Z,23.38
2023-05-12T05:51:24.680Z,23.40
2023-05-12T05:52:24.824Z,23.43
2023-05-12T05:53:24.700Z,23.47
2023-05-12T05:54:24.690Z,23.49
2023-05-12T05:55:24.723Z,23.52
2023-05-12T05:56:24.723Z,23.55
2023-05-12T05:57:24.759Z,23.58
2023-05-12T05:58:24.742Z,23.59
2023-05-12T05:59:24.745Z,23.62
2023-05-12T06:00:24.744Z,23.64
2023-05-12T06:01:24.745Z,23.66
2023-05-12T06:02:24.898Z,23.66
2023-05-12T06:03:24.871Z,23.69
2023-05-12T06:04:24.886Z,23.70
2023-05-12T06:05:24.740Z,23.71
2023-05-12T06:06:24.752Z,23.73
2023-05-12T06:07:24.757Z,23.74
2023-05-12T06:08:24.810Z,23.76
2023-05-12T06:09:24.743Z,23.77
2023-05-12T06:10:25.358Z,23.77
2023-05-12T06:11:24.733Z,23.77
2023-05-12T06:12:24.732Z,23.79
2023-05-12T06:13:24.721Z,23.81
2023-05-12T06:14:24.728Z,23.83
2023-05-12T06:15:24.730Z,23.85
2023-05-12T06:16:24.764Z,23.85
2023-05-12T06:17:24.804Z,23.87
2023-05-12T06:18:24.831Z,23.89
2023-05-12T06:19:24.825Z,23.89
2023-05-12T06:20:24.849Z,23.90
2023-05-12T06:21:24.945Z,23.91
2023-05-12T06:22:25.351Z,23.93
2023-05-12T06:23:24.896Z,23.93
2023-05-12T06:24:24.880Z,23.94
2023-05-12T06:25:24.862Z,23.95
2023-05-12T06:26:24.912Z,23.96
2023-05-12T06:27:25.333Z,23.97
2023-05-12T06:28:24.954Z,23.98
2023-05-12T06:29:25.010Z,24.00
2023-05-12T06:30:25.887Z,24.02
2023-05-12T06:31:25.158Z,24.03
2023-05-12T06:32:25.369Z,24.04
2023-05-12T06:33:25.348Z,24.02
2023-05-12T06:34:26.237Z,24.04
2023-05-12T06:35:25.304Z,24.06
2023-05-12T06:36:25.363Z,24.06
2023-05-12T06:37:25.849Z,24.07
2023-05-12T06:38:25.440Z,24.06
2023-05-12T06:39:25.475Z,24.07
2023-05-12T06:40:25.555Z,24.09
2023-05-12T06:41:25.564Z,24.13
2023-05-12T06:42:25.638Z,24.15
2023-05-12T06:43:25.696Z,24.16
2023-05-12T06:44:25.749Z,24.18
2023-05-12T06:45:25.789Z,24.19
2023-05-12T06:46:25.920Z,24.19
2023-05-12T06:47:26.363Z,24.22
2023-05-12T06:48:26.331Z,24.23
2023-05-12T06:49:26.057Z,24.24
2023-05-12T06:50:26.152Z,24.23
2023-05-12T06:51:26.163Z,24.26
2023-05-12T06:52:26.209Z,24.27
2023-05-12T06:53:26.328Z,24.29
2023-05-12T06:54:26.334Z,24.31
2023-05-12T06:55:26.394Z,24.32
2023-05-12T06:56:26.443Z,24.32
2023-05-12T06:57:26.478Z,24.33
2023-05-12T06:58:26.841Z,24.34
2023-05-12T06:59:26.593Z,24.36
2023-05-12T07:00:26.670Z,24.36
2023-05-12T07:01:26.783Z,24.38
2023-05-12T07:02:26.778Z,24.38
2023-05-12T07:03:26.816Z,24.39
2023-05-12T07:04:26.852Z,24.39
2023-05-12T07:05:26.907Z,24.40
2023-05-12T07:06:26.955Z,24.41
2023-05-12T07:07:26.970Z,24.42
2023-05-12T07:08:27.031Z,24.42
2023-05-12T07:09:27.070Z,24.42
2023-05-12T07:10:27.119Z,24.42
2023-05-12T07:11:27.160Z,24.42
2023-05-12T07:12:27.204Z,24.43
2023-05-12T07:13:27.253Z,24.42
2023-05-12T07:14:27.333Z,24.41
2023-05-12T07:15:27.321Z,24.42
2023-05-12T07:16:27.439Z,24.43
2023-05-12T07:17:27.461Z,24.42
2023-05-12T07:18:27.860Z,24.41
2023-05-12T07:19:27.514Z,24.41
2023-05-12T07:20:27.570Z,24.42
2023-05-12T07:21:27.590Z,24.43
2023-05-12T07:22:27.666Z,24.44
2023-05-12T07:23:27.691Z,24.44
2023-05-12T07:24:27.794Z,24.45
2023-05-12T07:25:27.897Z,24.43
2023-05-12T07:26:27.831Z,24.46
2023-05-12T07:27:27.904Z,24.48
2023-05-12T07:28:28.372Z,24.45
2023-05-12T07:29:27.995Z,24.43
2023-05-12T07:30:28.068Z,24.43
2023-05-12T07:31:28.100Z,24.39
2023-05-12T07:32:28.181Z,24.34
2023-05-12T07:33:28.360Z,24.30
2023-05-12T07:34:28.277Z,24.26
2023-05-12T07:35:28.391Z,24.26
2023-05-12T07:36:28.404Z,24.27
2023-05-12T07:37:28.474Z,24.27
2023-05-12T07:38:28.522Z,24.28
2023-05-12T07:39:28.661Z,24.29
2023-05-12T07:40:28.657Z,24.30
2023-05-12T07:41:28.709Z,24.30
2023-05-12T07:42:28.766Z,24.30
2023-05-12T07:43:28.847Z,24.29
2023-05-12T07:44:28.895Z,24.27
2023-05-12T07:45:29.007Z,24.27
2023-05-12T07:46:29.054Z,24.27
2023-05-12T07:47:29.122Z,24.27
2023-05-12T07:48:29.368Z,24.27
2023-05-12T07:49:29.190Z,24.26
2023-05-12T07:50:29.257Z,24.26
2023-05-12T07:51:29.293Z,24.26
2023-05-12T07:52:29.350Z,24.26
2023-05-12T07:53:29.905Z,24.26
2023-05-12T07:54:29.460Z,24.26
2023-05-12T07:55:29.504Z,24.27
2023-05-12T07:56:29.575Z,24.30
2023-05-12T07:57:29.617Z,24.33
2023-05-12T07:58:29.895Z,24.35
2023-05-12T07:59:29.729Z,24.36
2023-05-12T08:00:29.929Z,24.38
2023-05-12T08:01:29.817Z,24.39
2023-05-12T08:02:29.993Z,24.41
2023-05-12T08:03:30.460Z,24.41
2023-05-12T08:04:29.983Z,24.43
2023-05-12T08:05:29.998Z,24.44
2023-05-12T08:06:30.089Z,24.45
2023-05-12T08:07:30.094Z,24.46
2023-05-12T08:08:30.148Z,24.48
2023-05-12T08:09:30.200Z,24.49
2023-05-12T08:10:30.215Z,24.50
2023-05-12T08:11:30.267Z,24.51
2023-05-12T08:12:30.303Z,24.51
2023-05-12T08:13:30.340Z,24.53
2023-05-12T08:14:30.369Z,24.53
2023-05-12T08:15:30.409Z,24.53
2023-05-12T08:16:30.502Z,24.52
2023-05-12T08:17:30.521Z,24.54
2023-05-12T08:18:30.552Z,24.55
2023-05-12T08:19:30.563Z,24.56
2023-05-12T08:20:30.595Z,24.57
2023-05-12T08:21:30.631Z,24.57
2023-05-12T08:22:30.696Z,24.47
2023-05-12T08:23:30.879Z,24.42
2023-05-12T08:24:30.788Z,24.40
2023-05-12T08:25:30.881Z,24.38
2023-05-12T08:26:31.864Z,24.35
2023-05-12T08:27:30.953Z,24.33
2023-05-12T08:28:31.015Z,24.36
2023-05-12T08:29:31.072Z,24.38
2023-05-12T08:30:31.112Z,24.42
2023-05-12T08:31:31.229Z,24.45
2023-05-12T08:32:31.266Z,24.50
2023-05-12T08:33:31.291Z,24.53
2023-05-12T08:34:31.546Z,24.57
2023-05-12T08:35:31.334Z,24.57
2023-05-12T08:36:31.394Z,24.46
2023-05-12T08:37:33.033Z,24.37
2023-05-12T08:38:31.465Z,24.35
2023-05-12T08:39:31.450Z,24.35
2023-05-12T08:40:31.455Z,24.38
2023-05-12T08:41:31.411Z,24.40
2023-05-12T08:42:31.412Z,24.43
2023-05-12T08:43:31.885Z,24.40
2023-05-12T08:44:31.417Z,24.42
2023-05-12T08:45:31.438Z,24.43
2023-05-12T08:46:31.651Z,24.44
2023-05-12T08:47:31.435Z,24.41
2023-05-12T08:48:31.444Z,24.41
2023-05-12T08:49:31.403Z,24.44
2023-05-12T08:50:31.372Z,24.47
2023-05-12T08:51:31.347Z,24.48
2023-05-12T08:52:31.352Z,24.49
2023-05-12T08:53:31.373Z,24.50
2023-05-12T08:54:31.346Z,24.49
2023-05-12T08:55:33.708Z,24.50
2023-05-12T08:57:31.321Z,24.51
2023-05-12T08:58:41.121Z,24.53
2023-05-12T08:59:32.302Z,24.52
2023-05-12T09:00:31.385Z,24.51
2023-05-12T09:01:31.308Z,24.52
2023-05-12T09:02:44.744Z,24.51
2023-05-12T09:03:32.439Z,24.52
2023-05-12T09:04:31.342Z,24.52
2023-05-12T09:05:31.283Z,24.51
2023-05-12T09:06:31.258Z,24.51
2023-05-12T09:07:31.258Z,24.50
2023-05-12T09:08:31.247Z,24.51
2023-05-12T09:09:31.246Z,24.55
2023-05-12T09:10:35.321Z,24.57
2023-05-12T09:11:31.238Z,24.58
2023-05-12T09:12:31.222Z,24.57
2023-05-12T09:13:31.420Z,24.58
2023-05-12T09:14:31.224Z,24.59
2023-05-12T09:15:31.200Z,24.61
2023-05-12T09:16:31.224Z,24.61
2023-05-12T09:17:31.218Z,24.62
2023-05-12T09:18:31.427Z,24.63
2023-05-12T09:19:31.199Z,24.62
2023-05-12T09:20:32.131Z,24.61
2023-05-12T09:21:31.195Z,24.62
2023-05-12T09:22:31.192Z,24.61
2023-05-12T09:23:31.401Z,24.62
2023-05-12T09:24:31.900Z,24.62
2023-05-12T09:25:31.136Z,24.64
2023-05-12T09:26:31.136Z,24.60
2023-05-12T09:27:31.131Z,24.46
2023-05-12T09:28:31.152Z,24.24
2023-05-12T09:29:32.538Z,24.02
2023-05-12T09:30:31.105Z,23.89
2023-05-12T09:31:31.155Z,23.74
2023-05-12T09:32:31.136Z,23.70
2023-05-12T09:33:31.113Z,23.73
2023-05-12T09:34:31.459Z,23.78
2023-05-12T09:35:31.102Z,23.84
2023-05-12T09:36:31.111Z,23.89
2023-05-12T09:37:31.068Z,23.95
2023-05-12T09:38:31.046Z,23.99
2023-05-12T09:39:31.422Z,24.04
2023-05-12T09:40:31.052Z,24.06
2023-05-12T09:41:31.064Z,24.10
2023-05-12T09:42:31.037Z,24.11
2023-05-12T09:43:31.439Z,24.15
2023-05-12T09:44:31.041Z,24.18
2023-05-12T09:45:31.035Z,24.22
2023-05-12T09:46:31.180Z,24.25
2023-05-12T09:47:31.046Z,24.27
2023-05-12T09:48:31.449Z,24.30
2023-05-12T09:49:31.042Z,24.30
2023-05-12T09:50:40.809Z,24.31
2023-05-12T09:51:31.981Z,24.33
2023-05-12T09:52:31.087Z,24.33
2023-05-12T09:53:30.978Z,24.33
2023-05-12T09:54:31.441Z,24.34
2023-05-12T09:55:30.960Z,24.31
2023-05-12T09:56:30.945Z,24.31
2023-05-12T09:57:30.915Z,24.30
2023-05-12T09:58:30.938Z,24.33
2023-05-12T09:59:30.919Z,24.36
2023-05-12T10:00:46.242Z,24.39
2023-05-12T10:01:31.973Z,24.41
2023-05-12T10:02:31.056Z,24.44
2023-05-12T10:03:30.922Z,24.46
2023-05-12T10:04:31.056Z,24.47
2023-05-12T10:05:30.885Z,24.49
2023-05-12T10:06:30.889Z,24.49
2023-05-12T10:07:30.890Z,24.50
2023-05-12T10:08:30.879Z,24.50
2023-05-12T10:09:30.927Z,24.50
2023-05-12T10:10:30.876Z,24.50
2023-05-12T10:11:30.866Z,24.51
2023-05-12T10:12:30.845Z,24.53
2023-05-12T10:13:30.885Z,24.56
2023-05-12T10:14:31.439Z,24.49
2023-05-12T10:15:31.098Z,24.36
2023-05-12T10:16:31.106Z,24.28
2023-05-12T10:17:31.174Z,24.15
2023-05-12T10:18:31.143Z,24.06
2023-05-12T10:19:31.166Z,24.09
2023-05-12T10:20:31.206Z,24.09
2023-05-12T10:21:31.266Z,24.17
2023-05-12T10:22:31.333Z,24.23
2023-05-12T10:23:31.558Z,24.28
2023-05-12T10:24:31.990Z,24.33
2023-05-12T10:25:31.561Z,24.38
2023-05-12T10:26:31.567Z,24.34
2023-05-12T10:27:31.619Z,24.40
2023-05-12T10:28:31.637Z,24.46
2023-05-12T10:29:31.718Z,24.50
2023-05-12T10:30:31.729Z,24.54
2023-05-12T10:31:31.802Z,24.54
2023-05-12T10:32:31.843Z,24.44
2023-05-12T10:33:31.863Z,24.26
2023-05-12T10:34:31.920Z,24.10
2023-05-12T10:35:31.944Z,23.90
2023-05-12T10:36:31.943Z,23.79
2023-05-12T10:37:31.995Z,23.72
2023-05-12T10:38:31.950Z,23.72
2023-05-12T10:39:31.945Z,23.72
2023-05-12T10:40:31.954Z,23.75
2023-05-12T10:41:31.955Z,23.77
2023-05-12T10:42:31.946Z,23.81
2023-05-12T10:43:31.986Z,23.85
2023-05-12T10:44:31.947Z,23.90
2023-05-12T10:45:31.966Z,23.93
2023-05-12T10:46:31.988Z,23.97
2023-05-12T10:47:32.006Z,24.01
2023-05-12T10:48:32.149Z,24.05
2023-05-12T10:49:32.434Z,24.09
2023-05-12T10:50:32.128Z,24.13
2023-05-12T10:51:32.189Z,24.17
2023-05-12T10:52:32.253Z,24.20
2023-05-12T10:53:45.121Z,24.23
2023-05-12T10:54:33.444Z,24.25
2023-05-12T10:55:32.395Z,24.27
2023-05-12T10:56:32.586Z,24.30
2023-05-12T10:57:32.528Z,24.31
2023-05-12T10:58:32.755Z,24.33
2023-05-12T10:59:32.517Z,24.34
2023-05-12T11:00:33.077Z,24.36
2023-05-12T11:01:32.521Z,24.38
2023-05-12T11:02:32.926Z,24.39
2023-05-12T11:03:33.464Z,24.42
2023-05-12T11:04:32.614Z,24.42
2023-05-12T11:05:33.285Z,24.44
2023-05-12T11:06:32.625Z,24.45
2023-05-12T11:07:33.018Z,24.46
2023-05-12T11:08:32.644Z,24.48
2023-05-12T11:09:32.646Z,24.48
2023-05-12T11:10:33.527Z,24.50
2023-05-12T11:11:32.619Z,24.50
2023-05-12T11:12:33.181Z,24.50
2023-05-12T11:13:32.713Z,24.52
2023-05-12T11:14:32.953Z,24.52
2023-05-12T11:15:32.790Z,24.54
2023-05-12T11:16:32.871Z,24.55
2023-05-12T11:17:32.925Z,24.57
2023-05-12T11:18:32.900Z,24.59
2023-05-12T11:19:32.946Z,24.61
2023-05-12T11:20:32.954Z,24.62
2023-05-12T11:21:32.974Z,24.63
2023-05-12T11:22:33.023Z,24.66
2023-05-12T11:23:33.059Z,24.67
2023-05-12T11:24:33.950Z,24.68
2023-05-12T11:25:33.198Z,24.63
2023-05-12T11:26:33.161Z,24.59
2023-05-12T11:27:33.192Z,24.56
2023-05-12T11:28:33.255Z,24.53
2023-05-12T11:29:33.263Z,24.51
2023-05-12T11:30:33.317Z,24.50
2023-05-12T11:31:33.381Z,24.49
2023-05-12T11:32:33.422Z,24.47
2023-05-12T11:33:33.434Z,24.46
2023-05-12T11:34:33.537Z,24.44
2023-05-12T11:35:33.534Z,24.42
2023-05-12T11:36:33.605Z,24.41
2023-05-12T11:37:33.661Z,24.39
2023-05-12T11:38:33.714Z,24.38
2023-05-12T11:39:33.749Z,24.37
2023-05-12T11:40:33.788Z,24.35
2023-05-12T11:41:33.881Z,24.34
2023-05-12T11:42:33.900Z,24.33
2023-05-12T11:43:33.969Z,24.32
2023-05-12T11:44:34.022Z,24.32
2023-05-12T11:45:34.098Z,24.31
2023-05-12T11:46:34.129Z,24.30
2023-05-12T11:47:34.190Z,24.29
2023-05-12T11:48:34.226Z,24.28
2023-05-12T11:49:34.289Z,24.28
2023-05-12T11:50:34.383Z,24.27
2023-05-12T11:51:34.412Z,24.26
2023-05-12T11:52:34.463Z,24.25
2023-05-12T11:53:34.550Z,24.25
2023-05-12T11:54:34.645Z,24.24
2023-05-12T11:55:34.642Z,24.24
2023-05-12T11:56:34.719Z,24.22
2023-05-12T11:57:34.783Z,24.21
2023-05-12T11:58:35.703Z,24.20
2023-05-12T11:59:34.865Z,24.20
2023-05-12T12:00:34.988Z,24.19
2023-05-12T12:01:35.007Z,24.19
2023-05-12T12:02:35.105Z,24.18
2023-05-12T12:03:35.230Z,24.18
2023-05-12T12:04:35.525Z,24.19
2023-05-12T12:05:35.235Z,24.17
2023-05-12T12:06:35.314Z,24.18
2023-05-12T12:07:35.393Z,24.18
2023-05-12T12:08:35.435Z,24.18
2023-05-12T12:09:36.002Z,24.18
2023-05-12T12:10:35.540Z,24.17
2023-05-12T12:11:35.605Z,24.17
2023-05-12T12:12:35.685Z,24.17
2023-05-12T12:13:35.744Z,24.17
2023-05-12T12:14:35.797Z,24.15
2023-05-12T12:15:35.864Z,24.15
2023-05-12T12:16:35.983Z,24.15
2023-05-12T12:17:36.065Z,24.14
2023-05-12T12:18:36.159Z,24.14
2023-05-12T12:19:36.109Z,24.12
2023-05-12T12:20:36.175Z,24.12
2023-05-12T12:21:36.254Z,24.12
2023-05-12T12:22:36.261Z,24.12
2023-05-12T12:23:47.621Z,24.11
2023-05-12T12:24:37.323Z,24.11
2023-05-12T12:25:36.311Z,24.09
2023-05-12T12:26:37.694Z,24.09
2023-05-12T12:27:36.539Z,24.09
2023-05-12T12:28:36.577Z,24.09
2023-05-12T12:29:36.679Z,24.09
2023-05-12T12:30:36.722Z,24.08
2023-05-12T12:31:36.798Z,24.08
2023-05-12T12:32:36.851Z,24.08
2023-05-12T12:33:36.827Z,24.09
2023-05-12T12:34:36.868Z,24.11
2023-05-12T12:35:36.911Z,24.11
2023-05-12T12:36:36.947Z,24.12
2023-05-12T12:37:37.032Z,24.13
2023-05-12T12:38:37.000Z,24.14
2023-05-12T12:39:37.089Z,24.14
2023-05-12T12:40:37.140Z,24.15
2023-05-12T12:41:37.192Z,24.15
2023-05-12T12:42:37.302Z,24.16
2023-05-12T12:43:37.315Z,24.17
2023-05-12T12:44:37.456Z,24.17
2023-05-12T12:45:37.434Z,24.17
2023-05-12T12:46:37.551Z,24.17
2023-05-12T12:47:37.624Z,24.18
2023-05-12T12:48:37.627Z,24.19
2023-05-12T12:49:37.704Z,24.20
2023-05-12T12:50:37.717Z,24.20
2023-05-12T12:51:45.506Z,24.21
2023-05-12T12:52:38.794Z,24.21
2023-05-12T12:53:37.779Z,24.21
2023-05-12T12:54:37.781Z,24.22
2023-05-12T12:55:37.762Z,24.23